Portada
METAR-TAF:

METAR-TAF

Aeroports :

Aeroport Internacional de Nador

Nador, Marroc

latitud: 34-59-20N, longitud: 003-01-42W, altitud: 175 m

Observació

L'informe es va fer fa 56 minuts, a les 20:00 UTC
Vent 12 kt del Oest, variant entre Oest/Sud-Oest i Nord-Oest
Temperatura 15°C
Humitat 72%
Pressió 1021 hPa
Visibilitat 10 km o més
Escasses núvols a una alçada de 2600 ft
Núvols disperses a una alçada de 3500 ft

METAR: GMMW 132000Z 28012KT 250V310 9999 FEW026 SCT035 15/10 Q1021 NOSIG

Hora: 21:56 (20:56 UTC)

Pronòstic

L'informe es va fer fa 3 hores i 56 minuts, a les 17:00 UTC
Pronòstic vàlid del 13 a les 18 UTC al 14 a les 24 UTC
Vent 20 kt del Oest/Nord-Oest
Visibilitat 10 km o més
Escasses núvols a una alçada de 2600 ft
Núvols disperses a una alçada de 3300 ft

TAF: GMMW 131700Z 1318/1424 29020KT 9999 FEW026 SCT033

Observacions i pronòstics meteorològics de més de 4000 aeroports (METAR i TAF).

Les estacions disponibles són els punts grocs i vermells al mapa.

Posi el ratolí al punt desitjat per veure el nom de l'estació.

Feu clic per veure les observacions i els pronòstics meteorològics.

Per canviar el mapa: feu clic els botons verds amb una creu de color negre per apropar; al botó verd amb un guió per allunyar la imatge; o en les fletxes verdes per a mapes adjacents.


METAR-TAF: